createdAt,value
2023-05-01T00:07:18.712Z,0.80
2023-05-01T00:12:26.752Z,0.75
2023-05-01T00:17:37.869Z,0.90
2023-05-01T00:22:45.143Z,0.85
2023-05-01T00:27:47.421Z,1.10
2023-05-01T00:32:53.552Z,1.00
2023-05-01T00:37:55.317Z,0.90
2023-05-01T00:43:03.018Z,0.85
2023-05-01T00:48:12.826Z,0.90
2023-05-01T00:53:20.445Z,1.17
2023-05-01T00:58:40.252Z,1.00
2023-05-01T01:03:42.113Z,1.20
2023-05-01T01:09:00.009Z,0.90
2023-05-01T01:14:15.455Z,0.80
2023-05-01T01:19:42.356Z,0.90
2023-05-01T01:25:22.519Z,0.77
2023-05-01T01:30:39.828Z,0.90
2023-05-01T01:35:44.234Z,0.88
2023-05-01T01:41:10.470Z,1.05
2023-05-01T01:51:28.082Z,1.13
2023-05-01T02:02:17.394Z,0.90
2023-05-01T02:07:22.057Z,0.90
2023-05-01T02:23:31.930Z,0.90
2023-05-01T02:28:38.980Z,0.65
2023-05-01T02:33:42.156Z,1.00
2023-05-01T02:38:53.964Z,1.10
2023-05-01T02:44:01.392Z,1.00
2023-05-01T02:49:04.448Z,0.93
2023-05-01T02:54:15.888Z,1.10
2023-05-01T02:59:18.451Z,1.27
2023-05-01T03:04:21.166Z,1.00
2023-05-01T03:09:26.029Z,1.00
2023-05-01T03:14:30.968Z,1.00
2023-05-01T03:19:32.812Z,0.90
2023-05-01T03:24:34.703Z,0.93
2023-05-01T03:34:58.186Z,1.00
2023-05-01T03:40:00.415Z,1.00
2023-05-01T03:45:02.232Z,1.02
2023-05-01T03:50:07.206Z,1.15
2023-05-01T03:55:09.799Z,0.95
2023-05-01T04:00:20.124Z,1.00
2023-05-01T04:05:24.012Z,1.00
2023-05-01T04:10:29.337Z,1.20
2023-05-01T04:15:34.335Z,0.90
2023-05-01T04:20:51.250Z,1.10
2023-05-01T04:26:01.636Z,0.98
2023-05-01T04:31:07.419Z,1.13
2023-05-01T04:36:18.881Z,1.20
2023-05-01T04:41:29.900Z,1.02
2023-05-01T04:46:35.390Z,1.05
2023-05-01T04:51:38.879Z,1.13
2023-05-01T04:56:42.735Z,1.38
2023-05-01T05:01:47.822Z,1.00
2023-05-01T05:06:49.747Z,1.20
2023-05-01T05:17:15.798Z,1.45
2023-05-01T05:22:20.502Z,1.23
2023-05-01T05:27:25.777Z,1.00
2023-05-01T05:32:31.455Z,1.13
2023-05-01T05:37:39.240Z,1.13
2023-05-01T05:42:51.223Z,1.42
2023-05-01T05:47:57.783Z,0.95
2023-05-01T05:58:12.954Z,1.23
2023-05-01T06:03:17.666Z,1.02
2023-05-01T06:08:23.083Z,1.30
2023-05-01T06:13:29.427Z,1.20
2023-05-01T06:18:33.082Z,1.48
2023-05-01T06:23:53.515Z,1.10
2023-05-01T06:35:09.965Z,1.00
2023-05-01T06:40:12.812Z,1.25
2023-05-01T06:45:19.849Z,1.08
2023-05-01T06:50:28.210Z,1.20
2023-05-01T06:55:33.785Z,1.30
2023-05-01T07:00:37.361Z,1.63
2023-05-01T07:05:40.869Z,1.40
2023-05-01T07:10:45.850Z,1.27
2023-05-01T07:15:49.199Z,1.40
2023-05-01T07:21:00.210Z,1.23
2023-05-01T07:26:02.941Z,1.30
2023-05-01T07:31:05.019Z,1.30
2023-05-01T07:36:09.899Z,1.30
2023-05-01T07:41:11.669Z,1.90
2023-05-01T07:46:26.532Z,1.30
2023-05-01T07:51:28.262Z,1.30
2023-05-01T07:56:34.483Z,1.40
2023-05-01T08:01:36.619Z,1.30
2023-05-01T08:06:44.825Z,1.40
2023-05-01T08:11:46.766Z,1.70
2023-05-01T08:16:59.281Z,1.30
2023-05-01T08:22:03.716Z,1.52
2023-05-01T08:27:05.779Z,1.40
2023-05-01T08:32:17.010Z,1.48
2023-05-01T08:38:13.863Z,1.33
2023-05-01T08:44:05.759Z,1.80
2023-05-01T08:49:43.078Z,1.60
2023-05-01T08:54:59.770Z,1.85
2023-05-01T09:00:05.189Z,1.50
2023-05-01T09:05:10.543Z,1.77
2023-05-01T09:10:26.968Z,1.80
2023-05-01T09:15:48.534Z,1.67
2023-05-01T09:20:50.279Z,1.80
2023-05-01T09:26:03.916Z,1.63
2023-05-01T09:31:29.419Z,1.67
2023-05-01T09:36:36.126Z,1.77
2023-05-01T09:41:42.071Z,1.55
2023-05-01T11:38:54.647Z,2.03
2023-05-01T11:44:06.990Z,2.10
2023-05-01T11:49:19.172Z,1.98
2023-05-01T11:54:25.527Z,1.70
2023-05-01T11:59:27.542Z,1.80
2023-05-01T12:04:35.495Z,2.08
2023-05-01T12:09:39.018Z,1.75
2023-05-01T12:14:40.882Z,2.05
2023-05-01T12:25:33.276Z,1.88
2023-05-01T12:41:55.848Z,1.92
2023-05-01T12:47:09.514Z,1.50
2023-05-01T12:52:12.610Z,2.10
2023-05-01T13:03:09.533Z,2.20
2023-05-01T13:08:22.199Z,1.80
2023-05-01T14:21:17.576Z,2.00
2023-05-01T14:26:27.287Z,1.98
2023-05-01T14:31:29.922Z,1.92
2023-05-01T14:36:32.784Z,1.73
2023-05-01T14:41:34.544Z,2.00
2023-05-01T14:46:36.729Z,1.73
2023-05-01T14:51:43.428Z,2.08
2023-05-01T15:02:03.713Z,1.70
2023-05-01T15:07:05.599Z,1.75
2023-05-01T15:12:35.520Z,1.98
2023-05-01T15:17:40.862Z,2.10
2023-05-01T15:33:14.000Z,1.90
2023-05-01T15:38:26.216Z,1.90
2023-05-01T15:43:38.104Z,1.90
2023-05-01T15:48:48.501Z,2.97
2023-05-01T15:53:52.722Z,4.85
2023-05-01T15:58:57.715Z,2.97
2023-05-01T16:04:05.501Z,2.55
2023-05-01T16:09:10.278Z,2.58
2023-05-01T16:14:25.839Z,2.38
2023-05-01T16:19:30.862Z,2.30
2023-05-01T16:36:05.671Z,1.90
2023-05-01T16:41:13.125Z,1.85
2023-05-01T16:46:18.156Z,1.90
2023-05-01T16:51:21.327Z,1.88
2023-05-01T16:56:26.300Z,1.80
2023-05-01T17:01:30.616Z,1.88
2023-05-01T17:06:32.755Z,1.95
2023-05-01T17:11:36.841Z,1.80
2023-05-01T17:40:38.046Z,1.80
2023-05-01T17:45:42.646Z,1.85
2023-05-01T17:50:47.641Z,2.10
2023-05-01T17:55:55.674Z,2.00
2023-05-01T18:01:10.533Z,2.10
2023-05-01T18:06:25.513Z,1.80
2023-05-01T18:11:33.638Z,2.03
2023-05-01T18:16:39.529Z,1.90
2023-05-01T18:22:13.040Z,2.00
2023-05-01T18:27:24.869Z,1.73
2023-05-01T18:33:07.653Z,1.77
2023-05-01T18:38:03.293Z,1.70
2023-05-01T18:43:25.861Z,1.55
2023-05-01T18:48:46.685Z,1.55
2023-05-01T18:54:13.186Z,1.58
2023-05-01T18:59:18.489Z,1.85
2023-05-01T19:04:56.157Z,1.70
2023-05-01T19:10:06.789Z,1.85
2023-05-01T19:20:54.266Z,1.50
2023-05-01T19:26:03.338Z,1.65
2023-05-01T19:31:13.795Z,1.50
2023-05-01T19:36:18.999Z,1.50
2023-05-01T19:41:21.362Z,1.42
2023-05-01T19:46:33.225Z,1.63
2023-05-01T19:51:44.272Z,1.45
2023-05-01T19:56:47.090Z,1.35
2023-05-01T20:01:52.471Z,1.30
2023-05-01T20:06:56.320Z,1.63
2023-05-01T20:12:24.300Z,1.35
2023-05-01T20:17:43.374Z,1.70
2023-05-01T20:23:38.187Z,1.20
2023-05-01T20:29:16.233Z,1.40
2023-05-01T20:34:48.351Z,1.20
2023-05-01T20:40:09.838Z,1.50
2023-05-01T20:50:32.765Z,1.52
2023-05-01T20:55:48.507Z,1.10
2023-05-01T21:06:24.288Z,1.40
2023-05-01T21:11:29.677Z,1.67
2023-05-01T21:17:04.684Z,1.40
2023-05-01T21:22:27.325Z,1.20
2023-05-01T21:27:43.340Z,1.40
2023-05-01T21:38:21.594Z,1.20
2023-05-01T21:43:26.281Z,1.20
2023-05-01T21:49:02.280Z,1.13
2023-05-01T21:54:06.761Z,1.10
2023-05-01T21:59:10.487Z,1.20
2023-05-01T22:09:54.075Z,1.50
2023-05-01T22:15:02.966Z,1.27
2023-05-01T22:20:15.262Z,1.45
2023-05-01T22:25:21.638Z,1.02
2023-05-01T22:30:31.479Z,1.30
2023-05-01T22:35:39.440Z,1.30
2023-05-01T22:46:34.234Z,1.40
2023-05-01T22:51:51.514Z,1.27
2023-05-01T23:03:25.517Z,1.20
2023-05-01T23:09:20.886Z,1.27
2023-05-01T23:20:37.770Z,1.50
2023-05-01T23:26:28.403Z,1.30
2023-05-01T23:31:47.384Z,1.30
2023-05-01T23:42:43.936Z,1.10
2023-05-01T23:48:04.447Z,1.38
2023-05-01T23:53:15.252Z,1.30
2023-05-01T23:58:38.810Z,1.10
